createdAt,value
2023-01-21T00:00:03.469Z,15.80
2023-01-21T00:10:01.565Z,20.90
2023-01-21T00:20:02.171Z,20.30
2023-01-21T00:30:01.039Z,17.80
2023-01-21T00:40:02.118Z,15.20
2023-01-21T00:50:01.001Z,25.30
2023-01-21T01:00:01.997Z,19.70
2023-01-21T01:10:01.318Z,17.90
2023-01-21T01:20:02.088Z,18.70
2023-01-21T01:30:01.061Z,11.70
2023-01-21T01:40:02.356Z,13.70
2023-01-21T01:50:01.337Z,14.50
2023-01-21T02:00:01.283Z,15.80
2023-01-21T02:10:01.288Z,17.80
2023-01-21T02:20:01.304Z,22.20
2023-01-21T02:30:01.863Z,22.60
2023-01-21T02:40:01.342Z,17.00
2023-01-21T02:50:01.253Z,19.00
2023-01-21T03:00:01.785Z,15.10
2023-01-21T03:10:01.197Z,22.70
2023-01-21T03:20:01.136Z,22.10
2023-01-21T03:30:01.248Z,22.20
2023-01-21T03:40:03.208Z,21.60
2023-01-21T03:50:01.065Z,15.00
2023-01-21T04:00:01.095Z,12.90
2023-01-21T04:10:01.294Z,16.00
2023-01-21T04:20:01.027Z,15.00
2023-01-21T04:30:01.018Z,12.80
2023-01-21T04:40:00.834Z,12.40
2023-01-21T04:50:01.022Z,11.40
2023-01-21T05:00:02.933Z,11.40
2023-01-21T05:10:01.558Z,13.90
2023-01-21T05:20:01.024Z,12.00
2023-01-21T05:30:01.103Z,12.50
2023-01-21T05:40:01.551Z,11.30
2023-01-21T05:50:01.257Z,12.00
2023-01-21T06:00:01.550Z,11.70
2023-01-21T06:10:01.020Z,11.60
2023-01-21T06:20:01.028Z,11.60
2023-01-21T06:30:01.298Z,16.30
2023-01-21T06:40:01.231Z,22.30
2023-01-21T06:50:01.436Z,24.60
2023-01-21T07:00:01.194Z,25.80
2023-01-21T07:10:01.940Z,25.90
2023-01-21T07:20:02.788Z,18.50
2023-01-21T07:30:02.085Z,25.20
2023-01-21T07:40:01.360Z,21.70
2023-01-21T07:50:01.914Z,21.00
2023-01-21T08:00:01.279Z,26.30
2023-01-21T08:10:01.902Z,21.90
2023-01-21T08:20:00.282Z,22.00
2023-01-21T08:30:02.017Z,23.80
2023-01-21T08:40:01.018Z,19.80
2023-01-21T08:50:01.025Z,20.30
2023-01-21T09:00:01.508Z,17.60
2023-01-21T09:10:01.096Z,18.80
2023-01-21T09:20:02.760Z,20.10
2023-01-21T09:30:01.360Z,22.20
2023-01-21T09:40:01.325Z,21.30
2023-01-21T09:50:01.094Z,19.70
2023-01-21T10:00:01.167Z,19.50
2023-01-21T10:10:01.700Z,17.30
2023-01-21T10:20:03.761Z,19.50
2023-01-21T10:30:01.186Z,22.70
2023-01-21T10:40:00.998Z,13.70
2023-01-21T10:50:01.157Z,17.20
2023-01-21T11:00:01.051Z,17.20
2023-01-21T11:10:01.228Z,18.20
2023-01-21T11:20:01.060Z,16.80
2023-01-21T11:30:01.322Z,14.80
2023-01-21T11:40:01.016Z,17.60
2023-01-21T11:50:01.074Z,18.40
2023-01-21T12:00:01.060Z,15.20
2023-01-21T12:10:03.116Z,13.90
2023-01-21T12:20:01.278Z,15.10
2023-01-21T12:30:01.030Z,15.20
2023-01-21T12:40:01.069Z,15.00
2023-01-21T12:50:01.908Z,18.30
2023-01-21T13:00:01.098Z,13.00
2023-01-21T13:10:00.308Z,13.10
2023-01-21T13:20:01.921Z,11.50
2023-01-21T13:30:01.265Z,11.50
2023-01-21T13:40:01.031Z,11.50
2023-01-21T13:50:00.972Z,8.50
2023-01-21T14:00:01.081Z,10.90
2023-01-21T14:10:01.246Z,7.80
2023-01-21T14:20:00.336Z,9.80
2023-01-21T14:30:01.069Z,8.00
2023-01-21T14:40:01.326Z,9.30
2023-01-21T14:50:01.036Z,10.20
2023-01-21T15:00:01.595Z,11.10
2023-01-21T15:10:02.266Z,7.60
2023-01-21T15:20:01.495Z,9.20
2023-01-21T15:30:02.459Z,6.30
2023-01-21T15:40:00.294Z,10.70
2023-01-21T15:50:02.243Z,6.40
2023-01-21T16:00:01.444Z,8.10
2023-01-21T16:10:01.055Z,8.00
2023-01-21T16:20:01.304Z,11.00
2023-01-21T16:30:02.728Z,2.10
2023-01-21T16:40:01.307Z,2.60
2023-01-21T16:50:01.731Z,2.50
2023-01-21T17:00:01.055Z,1.20
2023-01-21T17:10:02.748Z,3.30
2023-01-21T17:20:01.050Z,4.40
2023-01-21T17:30:01.119Z,1.90
2023-01-21T17:40:01.485Z,2.90
2023-01-21T17:50:01.048Z,1.60
2023-01-21T18:00:00.965Z,1.30
2023-01-21T18:10:01.522Z,2.20
2023-01-21T18:20:02.184Z,1.70
2023-01-21T18:30:01.775Z,1.60
2023-01-21T18:40:02.520Z,1.80
2023-01-21T18:50:02.512Z,3.00
2023-01-21T19:00:03.620Z,2.40
2023-01-21T19:10:02.068Z,2.70
2023-01-21T19:20:01.002Z,1.80
2023-01-21T19:30:01.485Z,1.50
2023-01-21T19:40:02.606Z,5.60
2023-01-21T19:50:01.770Z,1.70
2023-01-21T20:00:00.333Z,1.80
2023-01-21T20:20:01.061Z,2.40
2023-01-21T20:30:16.716Z,1.70
2023-01-21T20:40:03.019Z,2.80
2023-01-21T20:50:01.509Z,2.80
2023-01-21T21:00:01.390Z,2.90
2023-01-21T21:10:01.446Z,4.10
2023-01-21T21:20:01.351Z,4.30
2023-01-21T21:30:02.419Z,6.00
2023-01-21T21:40:01.335Z,7.80
2023-01-21T21:50:01.305Z,6.30
2023-01-21T22:00:02.929Z,2.30
2023-01-21T22:10:01.712Z,3.50
2023-01-21T22:20:01.101Z,3.20
2023-01-21T22:30:01.672Z,4.00
2023-01-21T22:40:00.284Z,7.30
2023-01-21T22:50:01.353Z,4.30
2023-01-21T23:00:04.460Z,4.80
2023-01-21T23:10:01.107Z,2.00
2023-01-21T23:20:01.098Z,1.90
2023-01-21T23:30:01.163Z,1.60
2023-01-21T23:40:01.038Z,2.80
2023-01-21T23:50:01.032Z,2.60
